This is the latest recevied weather packets stored in our database for station/object KM4KMS. If no packets are shown the sender has not sent any weather packets the latest 10 day(s).
| Time | Temp. | Humidity | Pressure | Rain* | Wind** | Luminosity | Snow |
|---|---|---|---|---|---|---|---|
| 1777565048 | 13.33° C | 63% | 1016.4 hPa | 0 mm | - | 878 W/m² | - |
| 1777564743 | 13.33° C | 61% | 1016.2 hPa | 0 mm | - | 912 W/m² | - |
| 1777564438 | 12.78° C | 64% | 1016.4 hPa | 0 mm | - | 851 W/m² | - |
| 1777564135 | 12.22° C | 67% | 1016.3 hPa | 0 mm | - | 291 W/m² | - |
| 1777563830 | 11.67° C | 66% | 1016.4 hPa | 0 mm | - | 766 W/m² | - |
| 1777563527 | 11.67° C | 65% | 1016.5 hPa | 0 mm | - | 828 W/m² | - |
| 1777563226 | 11.67° C | 65% | 1016.4 hPa | 0 mm | - | 818 W/m² | - |
| 1777562924 | 11.67° C | 67% | 1016.7 hPa | 0 mm | - | 779 W/m² | - |
| 1777562619 | 12.22° C | 66% | 1016.5 hPa | 0 mm | - | 733 W/m² | - |
| 1777562319 | 12.78° C | 63% | 1016.4 hPa | 0 mm | - | 804 W/m² | - |
| 1777562015 | 12.22° C | 65% | 1016.6 hPa | 0 mm | - | 783 W/m² | - |
| 1777561712 | 12.22° C | 65% | 1016.6 hPa | 0 mm | - | 751 W/m² | - |
| 1777561407 | 11.67° C | 65% | 1016.8 hPa | 0 mm | - | 732 W/m² | - |
| 1777561103 | 11.11° C | 68% | 1016.6 hPa | 0 mm | - | 754 W/m² | - |
| 1777560798 | 11.11° C | 67% | 1016.5 hPa | 0 mm | - | 737 W/m² | - |
| 1777560496 | 11.67° C | 65% | 1016.4 hPa | 0 mm | - | 636 W/m² | - |
| 1777560194 | 10.56° C | 68% | 1016.4 hPa | 0 mm | - | 685 W/m² | - |
| 1777559890 | 10.56° C | 68% | 1016.2 hPa | 0 mm | - | 676 W/m² | - |
| 1777559585 | 10.56° C | 67% | 1016.2 hPa | 0 mm | - | 656 W/m² | - |
| 1777559284 | 10.56° C | 68% | 1016.2 hPa | 0 mm | - | 587 W/m² | - |
| 1777558979 | 11.11° C | 66% | 1016.3 hPa | 0 mm | - | 505 W/m² | - |
| 1777558675 | 11.11° C | 69% | 1016.4 hPa | 0 mm | - | 570 W/m² | - |
| 1777558370 | 11.11° C | 69% | 1016 hPa | 0 mm | - | 594 W/m² | - |
| 1777558067 | 10.56° C | 72% | 1016.3 hPa | 0 mm | - | 542 W/m² | - |
| 1777557764 | 10° C | 71% | 1016.1 hPa | 0 mm | - | 514 W/m² | - |
* Rain latest hour (hover to see other rain measurements)
** Current wind speed in m/s (hover to see current wind gust speed)